Time;durP1;ratioP1;P1;durP2;ratioP2;P2;SDS_P1;SDS_P2;PMS_P1;PMS_P2;Temp;Humidity;BMP_temperature;BMP_pressure;BME280_temperature;BME280_humidity;BME280_pressure;Samples;Min_cycle;Max_cycle;Signal;HPM_P1;HPM_P2
2021/11/17 02:26:39;;;;;;;;;;;;;;;;;;2042181;28;1320;-90
2021/11/17 02:38:31;;;;;;;;;;;;;;;;;;2072980;28;1113;-90
2021/11/17 02:39:50;;;;;;;;;;;;;;;;;;2066772;28;1128;-90
2021/11/17 02:41:00;;;;;;;;;;;;;;;;;;2055884;28;1388;-90
2021/11/17 02:42:09;;;;;;;;;;;;;;;;;;2042720;29;1353;-91
2021/11/17 02:43:19;;;;;;;;;;;;;;;;;;2049690;28;971;-90
2021/11/17 02:44:31;;;;;;;;;;;;;;;;;;2048508;28;1522;-90
2021/11/17 02:45:50;;;;;;;;;;;;;;;;;;2044993;28;1535;-91
2021/11/17 02:46:59;;;;;;;;;;;;;;;;;;2052460;28;1234;-91
2021/11/17 02:48:16;;;;;;;;;;;;;;;;;;2047778;28;1267;-91
2021/11/17 02:49:53;;;;;;;;;;;;;;;;;;2037135;29;1228;-89
2021/11/17 02:57:26;;;;;;;;;;;;;;;;;;2041734;29;679;-88
2021/11/17 02:58:34;;;;;;;;;;;;;;;;;;2019956;29;2098;-88
2021/11/17 02:59:45;;;;;;;;;;;;;;;;;;2011557;28;1319;-89
2021/11/17 03:00:53;;;;;;;;;;;;;;;;;;2019007;29;1308;-88
2021/11/17 03:02:08;;;;;;;;;;;;;;;;;;2025839;29;1333;-90
2021/11/17 03:03:27;;;;;;;;;;;;;;;;;;2027385;29;1457;-90
2021/11/17 03:04:40;;;;;;;;;;;;;;;;;;2032048;29;1401;-89
2021/11/17 03:05:48;;;;;;;;;;;;;;;;;;2038818;29;1418;-89
2021/11/17 03:07:04;;;;;;;;;;;;;;;;;;2040169;28;1395;-88
2021/11/17 03:08:23;;;;;;;;;;;;;;;;;;2023154;29;1457;-89
2021/11/17 03:09:34;;;;;;;;;;;;;;;;;;2023569;29;1267;-89
2021/11/17 03:10:45;;;;;;;;;;;;;;;;;;2011421;28;1331;-90
2021/11/17 03:12:05;;;;;;;;;;;;;;;;;;2044619;28;1386;-89
2021/11/17 03:13:17;;;;;;;;;;;;;;;;;;2043888;29;2114;-89
2021/11/17 03:14:25;;;;;;;;;;;;;;;;;;2027371;28;1465;-89
2021/11/17 03:15:33;;;;;;;;;;;;;;;;;;2020053;28;1486;-89
2021/11/17 03:16:44;;;;;;;;;;;;;;;;;;2032944;28;2151;-89
2021/11/17 03:17:53;;;;;;;;;;;;;;;;;;2048700;28;1367;-89
2021/11/17 03:19:01;;;;;;;;;;;;;;;;;;2050573;28;1428;-90
2021/11/17 03:20:14;;;;;;;;;;;;;;;;;;2042525;29;1215;-89
2021/11/17 03:21:20;;;;;;;;;;;;;;;;;;2034159;28;1478;-89
2021/11/17 03:22:40;;;;;;;;;;;;;;;;;;2046293;28;1373;-89
2021/11/17 03:23:50;;;;;;;;;;;;;;;;;;2046698;28;1292;-89
2021/11/17 03:24:59;;;;;;;;;;;;;;;;;;2041302;28;1452;-89
2021/11/17 03:26:08;;;;;;;;;;;;;;;;;;2042564;28;1337;-90
2021/11/17 03:27:15;;;;;;;;;;;;;;;;;;2041398;29;1977;-90
2021/11/17 03:28:26;;;;;;;;;;;;;;;;;;2046364;28;1337;-90
2021/11/17 03:29:36;;;;;;;;;;;;;;;;;;2049154;28;1278;-90
2021/11/17 03:30:56;;;;;;;;;;;;;;;;;;2050852;28;1427;-89
2021/11/17 03:32:12;;;;;;;;;;;;;;;;;;2054759;28;1139;-90
2021/11/17 03:33:33;;;;;;;;;;;;;;;;;;2049433;28;1308;-91
2021/11/17 03:34:46;;;;;;;;;;;;;;;;;;2041824;28;1457;-91
2021/11/17 03:35:58;;;;;;;;;;;;;;;;;;2041307;28;1185;-90
2021/11/17 03:37:16;;;;;;;;;;;;;;;;;;2041535;29;1345;-90
2021/11/17 03:38:31;;;;;;;;;;;;;;;;;;2040443;28;1651;-89
2021/11/17 03:39:53;;;;;;;;;;;;;;;;;;2035650;28;1310;-89
2021/11/17 03:41:12;;;;;;;;;;;;;;;;;;2036209;28;1315;-89
2021/11/17 03:42:20;;;;;;;;;;;;;;;;;;2043603;28;1380;-90
2021/11/17 03:43:43;;;;;;;;;;;;;;;;;;2041306;28;1184;-90
2021/11/17 03:45:08;;;;;;;;;;;;;;;;;;2034068;29;1388;-89
2021/11/17 03:46:26;;;;;;;;;;;;;;;;;;2039425;29;1143;-89
2021/11/17 03:47:42;;;;;;;;;;;;;;;;;;2043474;28;1969;-89
2021/11/17 03:48:52;;;;;;;;;;;;;;;;;;2043470;28;1356;-89
2021/11/17 03:50:04;;;;;;;;;;;;;;;;;;2050427;28;1602;-89
2021/11/17 03:51:24;;;;;;;;;;;;;;;;;;2055582;28;1302;-89
2021/11/17 03:52:42;;;;;;;;;;;;;;;;;;2049527;28;1313;-89
2021/11/17 03:53:55;;;;;;;;;;;;;;;;;;2054747;28;1152;-90
2021/11/17 03:55:10;;;;;;;;;;;;;;;;;;2049591;28;1370;-89
2021/11/17 03:56:26;;;;;;;;;;;;;;;;;;2039470;28;1397;-89
2021/11/17 03:57:45;;;;;;;;;;;;;;;;;;2041013;28;1387;-90
2021/11/17 03:58:52;;;;;;;;;;;;;;;;;;2040729;28;1311;-89
2021/11/17 04:00:09;;;;;;;;;;;;;;;;;;2034081;28;1298;-90
2021/11/17 04:01:20;;;;;;;;;;;;;;;;;;2037016;28;2133;-89
2021/11/17 04:02:36;;;;;;;;;;;;;;;;;;2026419;28;1366;-88
2021/11/17 04:03:55;;;;;;;;;;;;;;;;;;2031792;28;1418;-89
2021/11/17 04:05:04;;;;;;;;;;;;;;;;;;2051029;28;1313;-89
2021/11/17 04:06:10;;;;;;;;;;;;;;;;;;2042335;28;1285;-88
2021/11/17 04:07:39;;;;;;;;;;;;;;;;;;2042619;28;1483;-89
2021/11/17 04:09:07;;;;;;;;;;;;;;;;;;2037046;28;1352;-89
2021/11/17 04:10:27;;;;;;;;;;;;;;;;;;2038780;28;1600;-91
2021/11/17 04:11:38;;;;;;;;;;;;;;;;;;2058753;28;1468;-89
2021/11/17 04:12:48;;;;;;;;;;;;;;;;;;2055783;28;1411;-89
2021/11/17 04:13:58;;;;;;;;;;;;;;;;;;2038474;28;1283;-89
2021/11/17 04:15:07;;;;;;;;;;;;;;;;;;2040304;28;1298;-90
2021/11/17 04:16:35;;;;;;;;;;;;;;;;;;2037722;29;2047;-89
2021/11/17 04:18:05;;;;;;;;;;;;;;;;;;2049612;28;1309;-89
2021/11/17 04:19:23;;;;;;;;;;;;;;;;;;2051387;28;1499;-89
2021/11/17 04:20:46;;;;;;;;;;;;;;;;;;2056483;28;1434;-89
2021/11/17 04:22:15;;;;;;;;;;;;;;;;;;2039697;28;1388;-89
2021/11/17 04:23:48;;;;;;;;;;;;;;;;;;2042232;28;2039;-89
2021/11/17 04:26:55;;;;;;;;;;;;;;;;;;2052726;28;1332;-89
2021/11/17 04:28:06;;;;;;;;;;;;;;;;;;2048411;28;2077;-89
2021/11/17 04:29:26;;;;;;;;;;;;;;;;;;2050035;28;1443;-89
2021/11/17 04:32:12;;;;;;;;;;;;;;;;;;2045394;28;1411;-89
2021/11/17 04:33:28;;;;;;;;;;;;;;;;;;2044139;28;1273;-89
2021/11/17 04:34:43;;;;;;;;;;;;;;;;;;2037166;28;1310;-89
2021/11/17 04:35:50;;;;;;;;;;;;;;;;;;2036616;28;1368;-91
2021/11/17 04:37:07;;;;;;;;;;;;;;;;;;2035371;28;1422;-90
2021/11/17 04:38:27;;;;;;;;;;;;;;;;;;2043007;28;1369;-90
2021/11/17 04:39:38;;;;;;;;;;;;;;;;;;2046515;28;1482;-89
2021/11/17 04:40:51;;;;;;;;;;;;;;;;;;2043996;29;1450;-89
2021/11/17 04:41:59;;;;;;;;;;;;;;;;;;2041512;28;1347;-89
2021/11/17 04:43:25;;;;;;;;;;;;;;;;;;2026783;29;1168;-90
2021/11/17 04:44:31;;;;;;;;;;;;;;;;;;2028836;29;1344;-89
2021/11/17 04:45:39;;;;;;;;;;;;;;;;;;2019208;28;1309;-89
2021/11/17 04:46:54;;;;;;;;;;;;;;;;;;2027070;28;1362;-90
2021/11/17 04:48:17;;;;;;;;;;;;;;;;;;2033140;29;1984;-89
2021/11/17 04:49:25;;;;;;;;;;;;;;;;;;2046259;28;1337;-90
2021/11/17 04:50:40;;;;;;;;;;;;;;;;;;2048896;28;1370;-89
2021/11/17 05:00:19;;;;;;;;;;;;;;;;;;2049871;29;595;-94
2021/11/17 05:01:29;;;;;;;;;;;;;;;;;;2049845;28;915;-92
2021/11/17 05:02:46;;;;;;;;;;;;;;;;;;2062538;28;1279;-93
2021/11/17 05:03:53;;;;;;;;;;;;;;;;;;2045809;28;1397;-89
2021/11/17 05:05:03;;;;;;;;;;;;;;;;;;2026204;29;1482;-89
2021/11/17 05:06:16;;;;;;;;;;;;;;;;;;2043333;28;1324;-89
2021/11/17 05:07:26;;;;;;;;;;;;;;;;;;2041251;28;1556;-89
2021/11/17 05:08:31;;;;;;;;;;;;;;;;;;2036627;28;1981;-89
2021/11/17 05:09:38;;;;;;;;;;;;;;;;;;2041529;28;1305;-89
2021/11/17 05:10:46;;;;;;;;;;;;;;;;;;2042675;28;1299;-88
2021/11/17 05:11:54;;;;;;;;;;;;;;;;;;2048206;28;1347;-87
2021/11/17 05:12:59;;;;;;;;;;;;;;;;;;2033847;28;1207;-85
2021/11/17 05:14:05;;;;;;;;;;;;;;;;;;2050485;28;1483;-88
2021/11/17 05:15:13;;;;;;;;;;;;;;;;;;2049928;28;1320;-87
2021/11/17 05:16:21;;;;;;;;;;;;;;;;;;2035749;28;1340;-88
2021/11/17 05:17:28;;;;;;;;;;;;;;;;;;2043335;28;1277;-87
2021/11/17 05:18:34;;;;;;;;;;;;;;;;;;2044360;28;1418;-86
2021/11/17 05:19:39;;;;;;;;;;;;;;;;;;2050761;28;1324;-87
2021/11/17 05:20:47;;;;;;;;;;;;;;;;;;2051133;28;1356;-86
2021/11/17 05:21:58;;;;;;;;;;;;;;;;;;2038333;28;1317;-85
2021/11/17 05:23:07;;;;;;;;;;;;;;;;;;2036826;28;1199;-87
2021/11/17 05:24:17;;;;;;;;;;;;;;;;;;2035680;28;1402;-89
2021/11/17 05:25:31;;;;;;;;;;;;;;;;;;2036899;29;1158;-91
2021/11/17 05:26:53;;;;;;;;;;;;;;;;;;2036556;28;1498;-89
2021/11/17 05:28:03;;;;;;;;;;;;;;;;;;2046011;28;1895;-92
2021/11/17 05:31:19;;;;;;;;;;;;;;;;;;2050861;29;701;-88
2021/11/17 05:32:30;;;;;;;;;;;;;;;;;;2050757;28;1418;-90
2021/11/17 05:35:51;;;;;;;;;;;;;;;;;;2051151;29;679;-89
2021/11/17 05:37:00;;;;;;;;;;;;;;;;;;2050307;28;1509;-84
2021/11/17 05:38:07;;;;;;;;;;;;;;;;;;2043045;29;1259;-86
2021/11/17 05:39:14;;;;;;;;;;;;;;;;;;2034963;28;1190;-87
2021/11/17 05:40:24;;;;;;;;;;;;;;;;;;2034799;29;1286;-91
2021/11/17 05:41:32;;;;;;;;;;;;;;;;;;2036736;28;1296;-86
2021/11/17 05:42:41;;;;;;;;;;;;;;;;;;2059148;28;951;-86
2021/11/17 05:43:50;;;;;;;;;;;;;;;;;;2056571;28;1268;-88
2021/11/17 05:45:01;;;;;;;;;;;;;;;;;;2051313;28;1167;-87
2021/11/17 05:46:08;;;;;;;;;;;;;;;;;;2046290;28;1381;-87
2021/11/17 05:47:38;;;;;;;;;;;;;;;;;;2034943;28;1247;-89
2021/11/17 05:48:48;;;;;;;;;;;;;;;;;;2045878;29;1917;-88
2021/11/17 05:49:54;;;;;;;;;;;;;;;;;;2049969;28;1218;-88
2021/11/17 05:51:09;;;;;;;;;;;;;;;;;;2042078;28;1314;-88
2021/11/17 05:52:25;;;;;;;;;;;;;;;;;;2041205;28;1466;-88
2021/11/17 05:53:37;;;;;;;;;;;;;;;;;;2043638;29;1394;-88
2021/11/17 05:54:59;;;;;;;;;;;;;;;;;;2043167;28;1322;-87
2021/11/17 05:56:08;;;;;;;;;;;;;;;;;;2050242;28;1404;-88
2021/11/17 05:57:24;;;;;;;;;;;;;;;;;;2049493;28;1233;-88
2021/11/17 05:58:32;;;;;;;;;;;;;;;;;;2047790;28;1789;-88
2021/11/17 05:59:48;;;;;;;;;;;;;;;;;;2033937;28;1269;-88
2021/11/17 06:00:56;;;;;;;;;;;;;;;;;;2038154;28;1438;-87
2021/11/17 06:02:05;;;;;;;;;;;;;;;;;;2056042;28;1349;-88
2021/11/17 06:03:15;;;;;;;;;;;;;;;;;;2057882;28;1317;-88
2021/11/17 06:04:15;;;;;;;;;;;;;;;;;;2048823;28;1408;-88
2021/11/17 06:05:17;;;;;;;;;;;;;;;;;;2041934;28;1341;-91
2021/11/17 06:06:17;;;;;;;;;;;;;;;;;;2049767;28;943;-90
2021/11/17 06:07:19;;;;;;;;;;;;;;;;;;2041773;28;1416;-90
2021/11/17 06:08:21;;;;;;;;;;;;;;;;;;2034489;28;1920;-90
2021/11/17 06:09:23;;;;;;;;;;;;;;;;;;2034013;28;1172;-91
2021/11/17 06:10:28;;;;;;;;;;;;;;;;;;2034342;28;1349;-90
2021/11/17 06:11:32;;;;;;;;;;;;;;;;;;2033844;28;2019;-89
2021/11/17 06:12:34;;;;;;;;;;;;;;;;;;2034456;28;1309;-90
2021/11/17 06:13:36;;;;;;;;;;;;;;;;;;2039792;28;1913;-89
2021/11/17 06:14:39;;;;;;;;;;;;;;;;;;2041765;29;1219;-90
2021/11/17 06:15:42;;;;;;;;;;;;;;;;;;2042188;28;1340;-89
2021/11/17 06:16:47;;;;;;;;;;;;;;;;;;2056527;28;1185;-90
2021/11/17 06:17:52;;;;;;;;;;;;;;;;;;2049136;28;1380;-90
2021/11/17 06:18:53;;;;;;;;;;;;;;;;;;2042054;28;1337;-90
2021/11/17 06:19:56;;;;;;;;;;;;;;;;;;2033692;28;1510;-90
2021/11/17 06:20:57;;;;;;;;;;;;;;;;;;2048903;28;1956;-94
2021/11/17 06:21:59;;;;;;;;;;;;;;;;;;2057432;28;770;-92
2021/11/17 06:23:05;;;;;;;;;;;;;;;;;;2041598;28;1825;-90
2021/11/17 06:24:08;;;;;;;;;;;;;;;;;;2034003;29;1125;-89
2021/11/17 06:25:10;;;;;;;;;;;;;;;;;;2033647;29;1216;-90
2021/11/17 06:26:15;;;;;;;;;;;;;;;;;;2033793;29;1393;-90
2021/11/17 06:27:17;;;;;;;;;;;;;;;;;;2033416;28;1374;-90
2021/11/17 06:28:21;;;;;;;;;;;;;;;;;;2033715;29;1970;-90
2021/11/17 06:29:23;;;;;;;;;;;;;;;;;;2033907;29;1275;-90
2021/11/17 06:30:25;;;;;;;;;;;;;;;;;;2049698;28;1313;-90
2021/11/17 06:31:26;;;;;;;;;;;;;;;;;;2048850;28;1212;-89
2021/11/17 06:32:28;;;;;;;;;;;;;;;;;;2040989;28;1347;-90
2021/11/17 06:33:29;;;;;;;;;;;;;;;;;;2033681;28;1271;-91
2021/11/17 06:34:33;;;;;;;;;;;;;;;;;;2033424;29;1348;-92
2021/11/17 06:35:35;;;;;;;;;;;;;;;;;;2033763;28;1284;-90
2021/11/17 06:36:37;;;;;;;;;;;;;;;;;;2033660;29;1998;-90
2021/11/17 06:37:37;;;;;;;;;;;;;;;;;;2033505;28;1184;-89
2021/11/17 06:38:39;;;;;;;;;;;;;;;;;;2033425;28;1290;-89
2021/11/17 06:39:41;;;;;;;;;;;;;;;;;;2041298;28;1243;-90
2021/11/17 06:40:44;;;;;;;;;;;;;;;;;;2033731;28;1389;-90
2021/11/17 06:41:46;;;;;;;;;;;;;;;;;;2047181;29;2096;-90
2021/11/17 06:42:49;;;;;;;;;;;;;;;;;;2049254;28;936;-90
2021/11/17 06:43:50;;;;;;;;;;;;;;;;;;2041395;28;1211;-91
2021/11/17 06:44:53;;;;;;;;;;;;;;;;;;2033452;28;1259;-90
2021/11/17 06:45:55;;;;;;;;;;;;;;;;;;2041288;29;1149;-90
2021/11/17 06:46:57;;;;;;;;;;;;;;;;;;2064992;28;1222;-90
2021/11/17 06:47:58;;;;;;;;;;;;;;;;;;2055290;28;1876;-90
2021/11/17 06:48:59;;;;;;;;;;;;;;;;;;2033405;29;1907;-89
2021/11/17 06:50:01;;;;;;;;;;;;;;;;;;2033651;29;1247;-90
2021/11/17 06:51:06;;;;;;;;;;;;;;;;;;2034357;29;1737;-90
2021/11/17 06:52:06;;;;;;;;;;;;;;;;;;2041986;28;1293;-90
2021/11/17 06:53:08;;;;;;;;;;;;;;;;;;2041009;29;1337;-89
2021/11/17 06:54:10;;;;;;;;;;;;;;;;;;2041566;28;1227;-90
2021/11/17 06:55:12;;;;;;;;;;;;;;;;;;2041221;28;1191;-90
2021/11/17 06:56:13;;;;;;;;;;;;;;;;;;2046623;28;2013;-90
2021/11/17 06:57:18;;;;;;;;;;;;;;;;;;2033311;28;1123;-92
2021/11/17 06:58:20;;;;;;;;;;;;;;;;;;2037785;28;2060;-91
2021/11/17 06:59:21;;;;;;;;;;;;;;;;;;2057110;28;1347;-90
2021/11/17 07:00:23;;;;;;;;;;;;;;;;;;2049121;28;1247;-90
2021/11/17 07:01:25;;;;;;;;;;;;;;;;;;2037032;28;2098;-90
2021/11/17 07:02:26;;;;;;;;;;;;;;;;;;2049433;28;1243;-90
2021/11/17 07:03:30;;;;;;;;;;;;;;;;;;2049097;28;1385;-91
2021/11/17 07:04:32;;;;;;;;;;;;;;;;;;2049645;28;1396;-90
2021/11/17 07:05:33;;;;;;;;;;;;;;;;;;2056998;28;1314;-90
2021/11/17 07:06:34;;;;;;;;;;;;;;;;;;2040976;28;2052;-89
2021/11/17 07:07:36;;;;;;;;;;;;;;;;;;2056832;28;1227;-90
2021/11/17 07:08:38;;;;;;;;;;;;;;;;;;2049411;28;1922;-90
2021/11/17 07:09:38;;;;;;;;;;;;;;;;;;2048975;28;1203;-90
2021/11/17 07:10:40;;;;;;;;;;;;;;;;;;2057129;28;871;-90
2021/11/17 07:11:42;;;;;;;;;;;;;;;;;;2041215;28;1918;-89
2021/11/17 07:12:44;;;;;;;;;;;;;;;;;;2049210;28;1218;-90
2021/11/17 07:13:46;;;;;;;;;;;;;;;;;;2056353;28;2014;-89
2021/11/17 07:14:47;;;;;;;;;;;;;;;;;;2041353;28;1234;-91
2021/11/17 07:15:49;;;;;;;;;;;;;;;;;;2048962;28;1322;-90
2021/11/17 07:16:51;;;;;;;;;;;;;;;;;;2049036;28;1997;-91
2021/11/17 07:17:53;;;;;;;;;;;;;;;;;;2033207;29;1309;-89
2021/11/17 07:18:54;;;;;;;;;;;;;;;;;;2033567;28;1219;-90
2021/11/17 07:19:56;;;;;;;;;;;;;;;;;;2040788;28;1196;-90
2021/11/17 07:20:57;;;;;;;;;;;;;;;;;;2040737;28;1951;-90
2021/11/17 07:22:00;;;;;;;;;;;;;;;;;;2041123;28;1232;-91
2021/11/17 07:23:01;;;;;;;;;;;;;;;;;;2041255;29;1376;-90
2021/11/17 07:24:03;;;;;;;;;;;;;;;;;;2041184;29;916;-91
2021/11/17 07:25:05;;;;;;;;;;;;;;;;;;2040950;28;1266;-89
2021/11/17 07:26:06;;;;;;;;;;;;;;;;;;2034634;28;2055;-89
2021/11/17 07:27:11;;;;;;;;;;;;;;;;;;2048675;29;1349;-90
2021/11/17 07:28:13;;;;;;;;;;;;;;;;;;2038660;28;1953;-90
2021/11/17 07:29:16;;;;;;;;;;;;;;;;;;2040882;28;1964;-92
2021/11/17 07:30:21;;;;;;;;;;;;;;;;;;2033287;29;1175;-90
2021/11/17 07:31:23;;;;;;;;;;;;;;;;;;2044340;28;2046;-90
2021/11/17 07:32:24;;;;;;;;;;;;;;;;;;2041228;28;1304;-90
2021/11/17 07:33:26;;;;;;;;;;;;;;;;;;2033423;28;1235;-90
2021/11/17 07:34:27;;;;;;;;;;;;;;;;;;2033121;28;1309;-90
2021/11/17 07:35:29;;;;;;;;;;;;;;;;;;2033212;28;1370;-90
2021/11/17 07:36:30;;;;;;;;;;;;;;;;;;2036786;29;2128;-90
2021/11/17 07:37:32;;;;;;;;;;;;;;;;;;2040944;28;1338;-90
2021/11/17 07:38:32;;;;;;;;;;;;;;;;;;2039040;28;2051;-92
2021/11/17 07:39:34;;;;;;;;;;;;;;;;;;2040855;28;1252;-90
2021/11/17 07:40:36;;;;;;;;;;;;;;;;;;2041107;28;1394;-90
2021/11/17 07:41:38;;;;;;;;;;;;;;;;;;2054611;28;2056;-90
2021/11/17 07:42:39;;;;;;;;;;;;;;;;;;2048920;28;1235;-92
2021/11/17 07:43:42;;;;;;;;;;;;;;;;;;2040347;28;1893;-91
2021/11/17 07:44:43;;;;;;;;;;;;;;;;;;2041044;28;1323;-89
2021/11/17 07:45:45;;;;;;;;;;;;;;;;;;2040921;28;1341;-89
2021/11/17 07:46:47;;;;;;;;;;;;;;;;;;2047703;28;2053;-90
2021/11/17 07:47:49;;;;;;;;;;;;;;;;;;2064992;28;1231;-90
2021/11/17 07:48:51;;;;;;;;;;;;;;;;;;2056593;28;1907;-90
2021/11/17 07:49:51;;;;;;;;;;;;;;;;;;2081816;28;1312;-90
2021/11/17 07:50:54;;;;;;;;;;;;;;;;;;2049083;28;856;-90
2021/11/17 07:51:55;;;;;;;;;;;;;;;;;;2048859;28;1400;-89
2021/11/17 07:52:57;;;;;;;;;;;;;;;;;;2048799;28;1365;-90
2021/11/17 07:53:59;;;;;;;;;;;;;;;;;;2040908;28;1316;-90
2021/11/17 07:55:00;;;;;;;;;;;;;;;;;;2040854;28;1206;-90
2021/11/17 07:56:02;;;;;;;;;;;;;;;;;;2048015;28;2014;-90
2021/11/17 07:57:07;;;;;;;;;;;;;;;;;;2040735;28;1312;-90
2021/11/17 07:58:09;;;;;;;;;;;;;;;;;;2040951;28;1868;-89
2021/11/17 07:59:14;;;;;;;;;;;;;;;;;;2033099;29;1322;-89
2021/11/17 08:00:17;;;;;;;;;;;;;;;;;;2033555;28;1177;-90
2021/11/17 08:01:19;;;;;;;;;;;;;;;;;;2035296;28;2051;-90
2021/11/17 08:02:21;;;;;;;;;;;;;;;;;;2033184;28;1263;-90
2021/11/17 08:03:24;;;;;;;;;;;;;;;;;;2040855;28;1296;-90
2021/11/17 08:04:24;;;;;;;;;;;;;;;;;;2033295;28;1489;-90
2021/11/17 08:05:26;;;;;;;;;;;;;;;;;;2032963;28;1283;-89
2021/11/17 08:06:29;;;;;;;;;;;;;;;;;;2037190;28;1267;-90
2021/11/17 08:07:31;;;;;;;;;;;;;;;;;;2040941;28;1207;-89
2021/11/17 08:08:33;;;;;;;;;;;;;;;;;;2040979;28;1231;-90
2021/11/17 08:09:35;;;;;;;;;;;;;;;;;;2082061;28;1906;-90
2021/11/17 08:10:38;;;;;;;;;;;;;;;;;;2081760;28;1282;-90
2021/11/17 08:11:40;;;;;;;;;;;;;;;;;;2047776;28;2033;-90
2021/11/17 08:12:41;;;;;;;;;;;;;;;;;;2057039;28;1398;-90
2021/11/17 08:13:43;;;;;;;;;;;;;;;;;;2055296;28;1787;-89
2021/11/17 08:14:46;;;;;;;;;;;;;;;;;;2040748;28;1172;-90
2021/11/17 08:15:46;;;;;;;;;;;;;;;;;;2048647;28;1359;-90
2021/11/17 08:16:48;;;;;;;;;;;;;;;;;;2048733;28;1889;-91
2021/11/17 08:17:49;;;;;;;;;;;;;;;;;;2048714;28;1166;-90
2021/11/17 08:18:51;;;;;;;;;;;;;;;;;;2048834;28;1243;-90
2021/11/17 08:19:51;;;;;;;;;;;;;;;;;;2040735;28;1410;-90
2021/11/17 08:20:53;;;;;;;;;;;;;;;;;;2040806;28;1356;-90
2021/11/17 08:21:54;;;;;;;;;;;;;;;;;;2048101;28;1104;-90
2021/11/17 08:22:58;;;;;;;;;;;;;;;;;;2040519;28;1907;-90
2021/11/17 08:23:58;;;;;;;;;;;;;;;;;;2041134;28;1085;-90
2021/11/17 08:25:00;;;;;;;;;;;;;;;;;;2048595;28;925;-90
2021/11/17 08:26:02;;;;;;;;;;;;;;;;;;2048057;28;1290;-90
2021/11/17 08:27:04;;;;;;;;;;;;;;;;;;2056136;28;1262;-90
2021/11/17 08:28:08;;;;;;;;;;;;;;;;;;2048897;28;1848;-90
2021/11/17 08:29:10;;;;;;;;;;;;;;;;;;2033022;28;1911;-90
2021/11/17 08:30:14;;;;;;;;;;;;;;;;;;2048915;28;1167;-90
2021/11/17 08:31:16;;;;;;;;;;;;;;;;;;2048082;28;2044;-92
2021/11/17 08:32:19;;;;;;;;;;;;;;;;;;2033049;29;1501;-90
2021/11/17 08:33:19;;;;;;;;;;;;;;;;;;2040502;28;1233;-89
2021/11/17 08:34:21;;;;;;;;;;;;;;;;;;2033005;28;1393;-90
2021/11/17 08:35:23;;;;;;;;;;;;;;;;;;2048488;28;1302;-90
2021/11/17 08:36:24;;;;;;;;;;;;;;;;;;2048644;28;2027;-90
2021/11/17 08:37:26;;;;;;;;;;;;;;;;;;2040442;29;1194;-91
2021/11/17 08:38:28;;;;;;;;;;;;;;;;;;2045480;28;1833;-89
2021/11/17 08:39:29;;;;;;;;;;;;;;;;;;2032871;28;1333;-90
2021/11/17 08:40:33;;;;;;;;;;;;;;;;;;2040965;29;957;-90
2021/11/17 08:41:34;;;;;;;;;;;;;;;;;;2044988;28;2108;-90
2021/11/17 08:42:37;;;;;;;;;;;;;;;;;;2040821;28;1353;-90
2021/11/17 08:43:40;;;;;;;;;;;;;;;;;;2040663;29;987;-91
2021/11/17 08:44:42;;;;;;;;;;;;;;;;;;2040922;28;1324;-90
2021/11/17 08:45:45;;;;;;;;;;;;;;;;;;2048462;28;1353;-89
2021/11/17 08:46:46;;;;;;;;;;;;;;;;;;2048452;28;1376;-91
2021/11/17 08:47:48;;;;;;;;;;;;;;;;;;2032857;29;1315;-90
2021/11/17 08:48:49;;;;;;;;;;;;;;;;;;2033341;28;1284;-90
2021/11/17 08:49:54;;;;;;;;;;;;;;;;;;2049800;28;1911;-91
2021/11/17 08:50:57;;;;;;;;;;;;;;;;;;2049557;28;2013;-91
2021/11/17 08:51:58;;;;;;;;;;;;;;;;;;2042264;28;1171;-90
2021/11/17 08:53:01;;;;;;;;;;;;;;;;;;2040901;28;2135;-90
2021/11/17 08:54:04;;;;;;;;;;;;;;;;;;2042176;29;1369;-90
2021/11/17 08:55:05;;;;;;;;;;;;;;;;;;2034061;28;1231;-89
2021/11/17 08:56:08;;;;;;;;;;;;;;;;;;2050144;28;1460;-90
2021/11/17 08:57:08;;;;;;;;;;;;;;;;;;2049780;28;1215;-89
2021/11/17 08:58:11;;;;;;;;;;;;;;;;;;2036637;28;2165;-90
2021/11/17 08:59:12;;;;;;;;;;;;;;;;;;2042086;28;1047;-90
2021/11/17 09:00:14;;;;;;;;;;;;;;;;;;2058185;28;1235;-90
2021/11/17 09:01:17;;;;;;;;;;;;;;;;;;2057628;28;880;-90
2021/11/17 09:02:19;;;;;;;;;;;;;;;;;;2049692;28;1358;-90
2021/11/17 09:03:20;;;;;;;;;;;;;;;;;;2048845;28;1924;-90
2021/11/17 09:04:22;;;;;;;;;;;;;;;;;;2042046;29;1337;-91
2021/11/17 09:05:24;;;;;;;;;;;;;;;;;;2034111;28;1211;-90
2021/11/17 09:06:26;;;;;;;;;;;;;;;;;;2034669;28;2010;-90
2021/11/17 09:07:26;;;;;;;;;;;;;;;;;;2034177;29;1203;-89
2021/11/17 09:08:29;;;;;;;;;;;;;;;;;;2054175;28;1883;-90
2021/11/17 09:09:32;;;;;;;;;;;;;;;;;;2049682;28;1902;-90
2021/11/17 09:10:33;;;;;;;;;;;;;;;;;;2053736;28;1606;-90
2021/11/17 09:11:36;;;;;;;;;;;;;;;;;;2056685;28;1886;-90
2021/11/17 09:12:37;;;;;;;;;;;;;;;;;;2041949;28;1621;-90
2021/11/17 09:13:40;;;;;;;;;;;;;;;;;;2042326;28;1853;-91
2021/11/17 09:14:40;;;;;;;;;;;;;;;;;;2049044;28;1689;-89
2021/11/17 09:15:43;;;;;;;;;;;;;;;;;;2049481;28;1239;-90
2021/11/17 09:16:47;;;;;;;;;;;;;;;;;;2050547;28;1223;-88
2021/11/17 09:17:48;;;;;;;;;;;;;;;;;;2046353;28;1641;-88
2021/11/17 09:18:52;;;;;;;;;;;;;;;;;;2041723;28;1656;-87
2021/11/17 09:19:53;;;;;;;;;;;;;;;;;;2057576;28;1633;-89
2021/11/17 09:20:55;;;;;;;;;;;;;;;;;;2049603;28;1667;-87
2021/11/17 09:21:57;;;;;;;;;;;;;;;;;;2080099;28;1238;-87
2021/11/17 09:22:59;;;;;;;;;;;;;;;;;;2046121;29;1904;-87
2021/11/17 09:24:00;;;;;;;;;;;;;;;;;;2045231;28;1621;-86
2021/11/17 09:25:02;;;;;;;;;;;;;;;;;;2041596;28;1594;-87
2021/11/17 09:26:04;;;;;;;;;;;;;;;;;;2041694;28;941;-87
2021/11/17 09:27:05;;;;;;;;;;;;;;;;;;2049576;28;1228;-88
2021/11/17 09:28:07;;;;;;;;;;;;;;;;;;2041621;29;2072;-87
2021/11/17 09:29:10;;;;;;;;;;;;;;;;;;2050074;28;1578;-87
2021/11/17 09:30:12;;;;;;;;;;;;;;;;;;2042581;29;1977;-87
2021/11/17 09:31:13;;;;;;;;;;;;;;;;;;2041381;28;1982;-87
2021/11/17 09:32:15;;;;;;;;;;;;;;;;;;2034244;28;1243;-87
2021/11/17 09:33:18;;;;;;;;;;;;;;;;;;2034026;28;1839;-88
2021/11/17 09:34:19;;;;;;;;;;;;;;;;;;2034126;28;1176;-88
2021/11/17 09:35:21;;;;;;;;;;;;;;;;;;2034006;28;1367;-87
2021/11/17 09:36:23;;;;;;;;;;;;;;;;;;2037489;28;2161;-87
2021/11/17 09:37:24;;;;;;;;;;;;;;;;;;2049940;28;801;-87
2021/11/17 09:38:26;;;;;;;;;;;;;;;;;;2049248;28;1825;-88
2021/11/17 09:39:28;;;;;;;;;;;;;;;;;;2048245;28;1660;-89
2021/11/17 09:40:30;;;;;;;;;;;;;;;;;;2046124;28;1573;-86
2021/11/17 09:41:33;;;;;;;;;;;;;;;;;;2048383;28;1849;-87
2021/11/17 09:42:34;;;;;;;;;;;;;;;;;;2056517;28;1699;-87
2021/11/17 09:43:39;;;;;;;;;;;;;;;;;;2056314;28;1861;-87
2021/11/17 09:44:42;;;;;;;;;;;;;;;;;;2049309;29;1364;-88
2021/11/17 09:45:46;;;;;;;;;;;;;;;;;;2042044;28;1499;-87
2021/11/17 09:46:48;;;;;;;;;;;;;;;;;;2041368;29;1664;-91
2021/11/17 09:47:53;;;;;;;;;;;;;;;;;;2041247;28;1854;-85
2021/11/17 09:48:56;;;;;;;;;;;;;;;;;;2055909;28;1463;-86
2021/11/17 09:50:00;;;;;;;;;;;;;;;;;;2057470;28;1902;-88
2021/11/17 09:51:04;;;;;;;;;;;;;;;;;;2048370;28;2163;-86
2021/11/17 09:52:06;;;;;;;;;;;;;;;;;;2049587;28;1312;-86
2021/11/17 09:53:11;;;;;;;;;;;;;;;;;;2041143;28;1891;-86
2021/11/17 09:54:14;;;;;;;;;;;;;;;;;;2048948;28;1569;-86
2021/11/17 09:55:17;;;;;;;;;;;;;;;;;;2042480;28;1528;-86
2021/11/17 09:56:21;;;;;;;;;;;;;;;;;;2041295;28;2057;-89
2021/11/17 09:57:31;;;;;;;;;;;;;;;;;;2042019;28;1197;-87
2021/11/17 09:58:34;;;;;;;;;;;;;;;;;;2041620;28;1914;-87
2021/11/17 09:59:37;;;;;;;;;;;;;;;;;;2048879;28;1742;-89
2021/11/17 10:00:39;;;;;;;;;;;;;;;;;;2049600;28;1227;-92
2021/11/17 10:01:43;;;;;;;;;;;;;;;;;;2049101;28;2045;-87
2021/11/17 10:02:47;;;;;;;;;;;;;;;;;;2041634;28;1216;-90
2021/11/17 10:03:52;;;;;;;;;;;;;;;;;;2049623;28;1534;-87
2021/11/17 10:04:57;;;;;;;;;;;;;;;;;;2057224;28;1179;-88
2021/11/17 10:11:42;;;;;;;;;;;;;;;;;;2044673;28;2052;-88
2021/11/17 10:12:56;;;;;;;;;;;;;;;;;;2036116;28;1489;-86
2021/11/17 10:14:11;;;;;;;;;;;;;;;;;;2049052;28;1562;-92
2021/11/17 10:15:15;;;;;;;;;;;;;;;;;;2049946;28;1328;-88
2021/11/17 10:16:16;;;;;;;;;;;;;;;;;;2048835;28;2033;-91
2021/11/17 10:17:36;;;;;;;;;;;;;;;;;;2041307;28;1367;-90
2021/11/17 10:18:40;;;;;;;;;;;;;;;;;;2036116;28;1381;-87
2021/11/17 10:19:42;;;;;;;;;;;;;;;;;;2034375;28;1340;-91
2021/11/17 10:20:58;;;;;;;;;;;;;;;;;;2047262;28;1587;-87
2021/11/17 10:22:01;;;;;;;;;;;;;;;;;;2035643;28;1432;-87
2021/11/17 10:23:17;;;;;;;;;;;;;;;;;;2035110;29;2008;-86
2021/11/17 10:24:20;;;;;;;;;;;;;;;;;;2045375;28;1507;-87
2021/11/17 10:25:22;;;;;;;;;;;;;;;;;;2041685;29;1319;-86
2021/11/17 10:26:24;;;;;;;;;;;;;;;;;;2056504;28;1344;-88
2021/11/17 10:27:26;;;;;;;;;;;;;;;;;;2049383;28;1530;-87
2021/11/17 10:28:30;;;;;;;;;;;;;;;;;;2038140;29;1870;-87
2021/11/17 10:29:34;;;;;;;;;;;;;;;;;;2041517;29;1563;-86
2021/11/17 10:30:38;;;;;;;;;;;;;;;;;;2041292;28;1907;-86
2021/11/17 10:31:47;;;;;;;;;;;;;;;;;;2033947;28;2018;-85
2021/11/17 10:33:00;;;;;;;;;;;;;;;;;;2041147;28;2011;-86
2021/11/17 10:34:12;;;;;;;;;;;;;;;;;;2042404;28;1548;-86
2021/11/17 10:35:19;;;;;;;;;;;;;;;;;;2042881;28;1271;-86
2021/11/17 10:36:22;;;;;;;;;;;;;;;;;;2048912;28;2045;-86
2021/11/17 10:37:26;;;;;;;;;;;;;;;;;;2042614;28;1597;-87
2021/11/17 10:38:29;;;;;;;;;;;;;;;;;;2041213;28;1936;-85
2021/11/17 10:39:35;;;;;;;;;;;;;;;;;;2041361;28;1085;-88
2021/11/17 10:40:43;;;;;;;;;;;;;;;;;;2041224;28;1235;-87
2021/11/17 10:42:00;;;;;;;;;;;;;;;;;;2046834;28;1847;-87
2021/11/17 10:43:02;;;;;;;;;;;;;;;;;;2046950;28;1838;-87
2021/11/17 10:44:05;;;;;;;;;;;;;;;;;;2041600;28;1621;-87
2021/11/17 10:45:23;;;;;;;;;;;;;;;;;;2046470;28;1668;-86
2021/11/17 10:46:27;;;;;;;;;;;;;;;;;;2044773;28;2013;-86
2021/11/17 10:47:33;;;;;;;;;;;;;;;;;;2042499;28;1460;-87